sensor_id;sensor_type;location;lat;lon;timestamp;P1;durP1;ratioP1;P2;durP2;ratioP2
17917;SDS011;9084;50.956;3.106;2023-04-01T00:01:12;9.07;;;4.20;;
17917;SDS011;9084;50.956;3.106;2023-04-01T00:03:41;10.73;;;4.18;;
17917;SDS011;9084;50.956;3.106;2023-04-01T00:06:13;7.35;;;4.50;;
17917;SDS011;9084;50.956;3.106;2023-04-01T00:08:42;7.55;;;3.78;;
17917;SDS011;9084;50.956;3.106;2023-04-01T00:11:09;10.07;;;4.38;;
17917;SDS011;9084;50.956;3.106;2023-04-01T00:13:37;7.47;;;3.58;;
17917;SDS011;9084;50.956;3.106;2023-04-01T00:16:03;11.00;;;4.38;;
17917;SDS011;9084;50.956;3.106;2023-04-01T00:18:29;8.18;;;4.13;;
17917;SDS011;9084;50.956;3.106;2023-04-01T00:20:57;7.28;;;3.55;;
17917;SDS011;9084;50.956;3.106;2023-04-01T00:23:25;13.77;;;4.13;;
17917;SDS011;9084;50.956;3.106;2023-04-01T00:25:53;8.68;;;3.30;;
17917;SDS011;9084;50.956;3.106;2023-04-01T00:28:23;13.45;;;4.60;;
17917;SDS011;9084;50.956;3.106;2023-04-01T00:30:49;12.10;;;4.03;;
17917;SDS011;9084;50.956;3.106;2023-04-01T00:33:17;10.48;;;4.25;;
17917;SDS011;9084;50.956;3.106;2023-04-01T00:35:47;8.05;;;3.30;;
17917;SDS011;9084;50.956;3.106;2023-04-01T00:38:13;10.23;;;3.35;;
17917;SDS011;9084;50.956;3.106;2023-04-01T00:40:43;8.02;;;3.28;;
17917;SDS011;9084;50.956;3.106;2023-04-01T00:43:12;6.95;;;2.80;;
17917;SDS011;9084;50.956;3.106;2023-04-01T00:45:43;8.27;;;3.17;;
17917;SDS011;9084;50.956;3.106;2023-04-01T00:48:14;8.13;;;4.05;;
17917;SDS011;9084;50.956;3.106;2023-04-01T00:50:47;12.95;;;4.13;;
17917;SDS011;9084;50.956;3.106;2023-04-01T00:53:17;10.23;;;3.72;;
17917;SDS011;9084;50.956;3.106;2023-04-01T00:55:47;11.88;;;4.03;;
17917;SDS011;9084;50.956;3.106;2023-04-01T00:58:23;11.60;;;4.10;;
17917;SDS011;9084;50.956;3.106;2023-04-01T01:00:50;12.00;;;4.60;;
17917;SDS011;9084;50.956;3.106;2023-04-01T01:03:18;7.65;;;3.42;;
17917;SDS011;9084;50.956;3.106;2023-04-01T01:08:20;9.18;;;4.03;;
17917;SDS011;9084;50.956;3.106;2023-04-01T01:11:15;11.15;;;4.38;;
17917;SDS011;9084;50.956;3.106;2023-04-01T01:16:24;9.25;;;4.15;;
17917;SDS011;9084;50.956;3.106;2023-04-01T01:19:09;12.70;;;4.85;;
17917;SDS011;9084;50.956;3.106;2023-04-01T01:24:54;10.00;;;4.38;;
17917;SDS011;9084;50.956;3.106;2023-04-01T01:27:46;14.27;;;5.63;;
17917;SDS011;9084;50.956;3.106;2023-04-01T01:30:25;14.93;;;5.40;;
17917;SDS011;9084;50.956;3.106;2023-04-01T01:38:10;13.63;;;4.50;;
17917;SDS011;9084;50.956;3.106;2023-04-01T01:40:42;13.02;;;4.20;;
17917;SDS011;9084;50.956;3.106;2023-04-01T01:43:12;8.13;;;3.80;;
17917;SDS011;9084;50.956;3.106;2023-04-01T01:45:46;14.55;;;4.43;;
17917;SDS011;9084;50.956;3.106;2023-04-01T01:48:14;13.43;;;4.30;;
17917;SDS011;9084;50.956;3.106;2023-04-01T01:50:44;8.18;;;3.10;;
17917;SDS011;9084;50.956;3.106;2023-04-01T01:53:13;10.60;;;4.30;;
17917;SDS011;9084;50.956;3.106;2023-04-01T01:55:40;11.18;;;4.05;;
17917;SDS011;9084;50.956;3.106;2023-04-01T02:00:55;11.23;;;3.85;;
17917;SDS011;9084;50.956;3.106;2023-04-01T02:03:26;12.38;;;4.20;;
17917;SDS011;9084;50.956;3.106;2023-04-01T02:05:57;9.27;;;4.13;;
17917;SDS011;9084;50.956;3.106;2023-04-01T02:11:17;7.22;;;3.75;;
17917;SDS011;9084;50.956;3.106;2023-04-01T02:16:33;7.45;;;3.05;;
17917;SDS011;9084;50.956;3.106;2023-04-01T02:19:04;6.75;;;3.10;;
17917;SDS011;9084;50.956;3.106;2023-04-01T02:21:33;9.93;;;3.90;;
17917;SDS011;9084;50.956;3.106;2023-04-01T02:24:05;7.18;;;3.30;;
17917;SDS011;9084;50.956;3.106;2023-04-01T02:26:36;6.88;;;2.88;;
17917;SDS011;9084;50.956;3.106;2023-04-01T02:29:02;9.18;;;2.95;;
17917;SDS011;9084;50.956;3.106;2023-04-01T02:31:30;7.78;;;3.40;;
17917;SDS011;9084;50.956;3.106;2023-04-01T02:33:59;7.63;;;3.20;;
17917;SDS011;9084;50.956;3.106;2023-04-01T02:36:25;8.57;;;3.67;;
17917;SDS011;9084;50.956;3.106;2023-04-01T02:38:51;6.65;;;3.33;;
17917;SDS011;9084;50.956;3.106;2023-04-01T02:41:21;5.93;;;3.60;;
17917;SDS011;9084;50.956;3.106;2023-04-01T02:43:49;7.00;;;4.00;;
17917;SDS011;9084;50.956;3.106;2023-04-01T02:46:16;8.35;;;5.05;;
17917;SDS011;9084;50.956;3.106;2023-04-01T02:48:44;8.77;;;4.63;;
17917;SDS011;9084;50.956;3.106;2023-04-01T02:51:12;9.23;;;4.88;;
17917;SDS011;9084;50.956;3.106;2023-04-01T02:53:40;8.38;;;5.65;;
17917;SDS011;9084;50.956;3.106;2023-04-01T02:56:08;6.47;;;5.20;;
17917;SDS011;9084;50.956;3.106;2023-04-01T02:58:35;6.85;;;4.93;;
17917;SDS011;9084;50.956;3.106;2023-04-01T03:01:04;8.02;;;5.55;;
17917;SDS011;9084;50.956;3.106;2023-04-01T03:03:34;9.32;;;5.85;;
17917;SDS011;9084;50.956;3.106;2023-04-01T03:06:06;10.88;;;6.10;;
17917;SDS011;9084;50.956;3.106;2023-04-01T03:08:33;7.80;;;5.10;;
17917;SDS011;9084;50.956;3.106;2023-04-01T03:11:02;8.23;;;5.28;;
17917;SDS011;9084;50.956;3.106;2023-04-01T03:13:32;10.88;;;6.00;;
17917;SDS011;9084;50.956;3.106;2023-04-01T03:15:58;7.43;;;5.55;;
17917;SDS011;9084;50.956;3.106;2023-04-01T03:18:26;10.20;;;5.72;;
17917;SDS011;9084;50.956;3.106;2023-04-01T03:20:54;7.88;;;5.43;;
17917;SDS011;9084;50.956;3.106;2023-04-01T03:23:25;7.80;;;5.20;;
17917;SDS011;9084;50.956;3.106;2023-04-01T03:25:53;6.70;;;4.90;;
17917;SDS011;9084;50.956;3.106;2023-04-01T03:28:18;8.75;;;5.70;;
17917;SDS011;9084;50.956;3.106;2023-04-01T03:30:46;11.15;;;5.53;;
17917;SDS011;9084;50.956;3.106;2023-04-01T03:33:14;8.15;;;5.80;;
17917;SDS011;9084;50.956;3.106;2023-04-01T03:35:40;8.40;;;6.20;;
17917;SDS011;9084;50.956;3.106;2023-04-01T03:38:05;8.80;;;5.93;;
17917;SDS011;9084;50.956;3.106;2023-04-01T03:40:31;10.77;;;6.03;;
17917;SDS011;9084;50.956;3.106;2023-04-01T03:42:58;9.07;;;5.70;;
17917;SDS011;9084;50.956;3.106;2023-04-01T03:45:23;10.02;;;6.22;;
17917;SDS011;9084;50.956;3.106;2023-04-01T03:47:49;10.13;;;6.28;;
17917;SDS011;9084;50.956;3.106;2023-04-01T03:50:15;10.07;;;6.28;;
17917;SDS011;9084;50.956;3.106;2023-04-01T03:52:43;12.75;;;6.70;;
17917;SDS011;9084;50.956;3.106;2023-04-01T03:55:08;8.90;;;6.75;;
17917;SDS011;9084;50.956;3.106;2023-04-01T03:57:36;10.02;;;6.30;;
17917;SDS011;9084;50.956;3.106;2023-04-01T04:00:02;10.57;;;6.15;;
17917;SDS011;9084;50.956;3.106;2023-04-01T04:02:28;9.25;;;6.60;;
17917;SDS011;9084;50.956;3.106;2023-04-01T04:04:56;10.23;;;5.78;;
17917;SDS011;9084;50.956;3.106;2023-04-01T04:07:21;9.10;;;5.40;;
17917;SDS011;9084;50.956;3.106;2023-04-01T04:09:49;8.93;;;4.57;;
17917;SDS011;9084;50.956;3.106;2023-04-01T04:12:20;8.77;;;5.35;;
17917;SDS011;9084;50.956;3.106;2023-04-01T04:14:46;8.30;;;5.47;;
17917;SDS011;9084;50.956;3.106;2023-04-01T04:17:11;7.97;;;5.90;;
17917;SDS011;9084;50.956;3.106;2023-04-01T04:19:41;9.40;;;5.68;;
17917;SDS011;9084;50.956;3.106;2023-04-01T04:22:07;6.05;;;5.07;;
17917;SDS011;9084;50.956;3.106;2023-04-01T04:24:36;5.55;;;4.97;;
17917;SDS011;9084;50.956;3.106;2023-04-01T04:27:04;4.93;;;4.40;;
17917;SDS011;9084;50.956;3.106;2023-04-01T04:29:30;6.82;;;4.82;;
17917;SDS011;9084;50.956;3.106;2023-04-01T04:31:58;7.82;;;4.80;;
17917;SDS011;9084;50.956;3.106;2023-04-01T04:34:23;7.25;;;4.70;;
17917;SDS011;9084;50.956;3.106;2023-04-01T04:36:51;6.18;;;5.05;;
17917;SDS011;9084;50.956;3.106;2023-04-01T04:39:17;8.27;;;4.20;;
17917;SDS011;9084;50.956;3.106;2023-04-01T04:41:45;6.00;;;4.07;;
17917;SDS011;9084;50.956;3.106;2023-04-01T04:44:13;8.55;;;4.43;;
17917;SDS011;9084;50.956;3.106;2023-04-01T04:46:42;5.07;;;3.67;;
17917;SDS011;9084;50.956;3.106;2023-04-01T04:49:12;7.53;;;4.05;;
17917;SDS011;9084;50.956;3.106;2023-04-01T04:51:40;6.78;;;4.13;;
17917;SDS011;9084;50.956;3.106;2023-04-01T04:54:06;10.27;;;3.95;;
17917;SDS011;9084;50.956;3.106;2023-04-01T04:56:35;10.32;;;4.35;;
17917;SDS011;9084;50.956;3.106;2023-04-01T04:59:01;4.35;;;3.95;;
17917;SDS011;9084;50.956;3.106;2023-04-01T05:01:26;6.53;;;4.68;;
17917;SDS011;9084;50.956;3.106;2023-04-01T05:03:55;7.15;;;4.68;;
17917;SDS011;9084;50.956;3.106;2023-04-01T05:06:25;5.43;;;4.10;;
17917;SDS011;9084;50.956;3.106;2023-04-01T05:08:54;7.22;;;5.15;;
17917;SDS011;9084;50.956;3.106;2023-04-01T05:11:20;7.00;;;4.85;;
17917;SDS011;9084;50.956;3.106;2023-04-01T05:13:46;6.90;;;4.82;;
17917;SDS011;9084;50.956;3.106;2023-04-01T05:16:14;6.95;;;4.65;;
17917;SDS011;9084;50.956;3.106;2023-04-01T05:18:47;7.32;;;4.38;;
17917;SDS011;9084;50.956;3.106;2023-04-01T05:21:13;8.55;;;4.25;;
17917;SDS011;9084;50.956;3.106;2023-04-01T05:23:40;5.40;;;4.00;;
17917;SDS011;9084;50.956;3.106;2023-04-01T05:26:10;5.70;;;4.32;;
17917;SDS011;9084;50.956;3.106;2023-04-01T05:28:37;6.55;;;4.50;;
17917;SDS011;9084;50.956;3.106;2023-04-01T05:31:04;5.95;;;4.10;;
17917;SDS011;9084;50.956;3.106;2023-04-01T05:33:30;4.43;;;3.90;;
17917;SDS011;9084;50.956;3.106;2023-04-01T05:35:56;6.93;;;4.43;;
17917;SDS011;9084;50.956;3.106;2023-04-01T05:38:30;5.50;;;3.42;;
17917;SDS011;9084;50.956;3.106;2023-04-01T05:40:59;5.88;;;3.65;;
17917;SDS011;9084;50.956;3.106;2023-04-01T05:43:27;6.63;;;3.22;;
17917;SDS011;9084;50.956;3.106;2023-04-01T05:45:56;4.18;;;3.78;;
17917;SDS011;9084;50.956;3.106;2023-04-01T05:48:22;4.35;;;3.33;;
17917;SDS011;9084;50.956;3.106;2023-04-01T05:50:48;3.88;;;3.05;;
17917;SDS011;9084;50.956;3.106;2023-04-01T05:53:13;4.38;;;3.22;;
17917;SDS011;9084;50.956;3.106;2023-04-01T05:55:39;6.90;;;4.03;;
17917;SDS011;9084;50.956;3.106;2023-04-01T05:58:05;5.85;;;3.22;;
17917;SDS011;9084;50.956;3.106;2023-04-01T06:00:30;5.93;;;3.88;;
17917;SDS011;9084;50.956;3.106;2023-04-01T06:02:59;5.60;;;4.07;;
17917;SDS011;9084;50.956;3.106;2023-04-01T06:05:27;4.82;;;3.53;;
17917;SDS011;9084;50.956;3.106;2023-04-01T06:08:11;6.95;;;4.90;;
17917;SDS011;9084;50.956;3.106;2023-04-01T06:22:51;3.35;;;3.03;;
17917;SDS011;9084;50.956;3.106;2023-04-01T06:42:24;2.90;;;2.50;;
17917;SDS011;9084;50.956;3.106;2023-04-01T06:56:05;3.03;;;2.10;;
17917;SDS011;9084;50.956;3.106;2023-04-01T06:58:45;6.97;;;2.35;;
17917;SDS011;9084;50.956;3.106;2023-04-01T07:01:32;3.97;;;1.98;;
17917;SDS011;9084;50.956;3.106;2023-04-01T07:04:11;2.33;;;1.63;;
17917;SDS011;9084;50.956;3.106;2023-04-01T07:07:47;2.65;;;2.20;;
17917;SDS011;9084;50.956;3.106;2023-04-01T07:09:53;3.70;;;1.73;;
17917;SDS011;9084;50.956;3.106;2023-04-01T07:15:25;2.83;;;2.13;;
17917;SDS011;9084;50.956;3.106;2023-04-01T07:18:00;2.17;;;1.63;;
17917;SDS011;9084;50.956;3.106;2023-04-01T07:20:31;1.88;;;1.77;;
17917;SDS011;9084;50.956;3.106;2023-04-01T07:23:06;2.00;;;1.80;;
17917;SDS011;9084;50.956;3.106;2023-04-01T07:25:41;2.78;;;1.88;;
17917;SDS011;9084;50.956;3.106;2023-04-01T07:28:14;4.45;;;1.70;;
17917;SDS011;9084;50.956;3.106;2023-04-01T07:30:47;2.45;;;2.17;;
17917;SDS011;9084;50.956;3.106;2023-04-01T07:33:20;2.85;;;1.80;;
17917;SDS011;9084;50.956;3.106;2023-04-01T07:44:13;3.78;;;1.40;;
17917;SDS011;9084;50.956;3.106;2023-04-01T07:46:48;2.20;;;1.40;;
17917;SDS011;9084;50.956;3.106;2023-04-01T07:55:06;4.60;;;2.00;;
17917;SDS011;9084;50.956;3.106;2023-04-01T07:57:57;5.65;;;1.70;;
17917;SDS011;9084;50.956;3.106;2023-04-01T08:00:28;3.67;;;1.85;;
17917;SDS011;9084;50.956;3.106;2023-04-01T08:03:29;4.00;;;2.20;;
17917;SDS011;9084;50.956;3.106;2023-04-01T08:06:12;2.65;;;1.67;;
17917;SDS011;9084;50.956;3.106;2023-04-01T08:08:50;3.00;;;1.67;;
17917;SDS011;9084;50.956;3.106;2023-04-01T08:22:39;2.47;;;1.98;;
17917;SDS011;9084;50.956;3.106;2023-04-01T08:25:13;3.40;;;2.03;;
17917;SDS011;9084;50.956;3.106;2023-04-01T08:28:13;5.13;;;2.30;;
17917;SDS011;9084;50.956;3.106;2023-04-01T08:30:47;3.10;;;1.50;;
17917;SDS011;9084;50.956;3.106;2023-04-01T08:33:27;5.47;;;2.30;;
17917;SDS011;9084;50.956;3.106;2023-04-01T08:36:57;2.35;;;2.15;;
17917;SDS011;9084;50.956;3.106;2023-04-01T08:38:55;7.75;;;2.05;;
17917;SDS011;9084;50.956;3.106;2023-04-01T08:49:36;3.38;;;1.65;;
17917;SDS011;9084;50.956;3.106;2023-04-01T09:00:52;2.67;;;1.10;;
17917;SDS011;9084;50.956;3.106;2023-04-01T09:11:30;1.48;;;0.70;;
17917;SDS011;9084;50.956;3.106;2023-04-01T09:14:23;2.95;;;0.90;;
17917;SDS011;9084;50.956;3.106;2023-04-01T09:20:09;1.80;;;1.17;;
17917;SDS011;9084;50.956;3.106;2023-04-01T09:29:23;2.03;;;0.80;;
17917;SDS011;9084;50.956;3.106;2023-04-01T09:44:57;0.80;;;0.57;;
17917;SDS011;9084;50.956;3.106;2023-04-01T09:52:44;3.22;;;0.80;;
17917;SDS011;9084;50.956;3.106;2023-04-01T10:09:51;2.40;;;1.63;;
17917;SDS011;9084;50.956;3.106;2023-04-01T10:23:13;1.25;;;0.60;;
17917;SDS011;9084;50.956;3.106;2023-04-01T10:28:46;2.28;;;0.65;;
17917;SDS011;9084;50.956;3.106;2023-04-01T10:34:02;0.60;;;0.60;;
17917;SDS011;9084;50.956;3.106;2023-04-01T11:15:10;1.08;;;0.60;;
17917;SDS011;9084;50.956;3.106;2023-04-01T11:23:37;1.65;;;0.60;;
17917;SDS011;9084;50.956;3.106;2023-04-01T11:41:08;2.00;;;0.82;;
17917;SDS011;9084;50.956;3.106;2023-04-01T11:56:29;0.77;;;0.52;;
17917;SDS011;9084;50.956;3.106;2023-04-01T12:01:56;0.95;;;0.30;;
17917;SDS011;9084;50.956;3.106;2023-04-01T12:10:04;0.65;;;0.40;;
17917;SDS011;9084;50.956;3.106;2023-04-01T12:16:07;0.68;;;0.40;;
17917;SDS011;9084;50.956;3.106;2023-04-01T12:29:49;1.00;;;0.60;;
17917;SDS011;9084;50.956;3.106;2023-04-01T12:52:05;0.82;;;0.80;;
17917;SDS011;9084;50.956;3.106;2023-04-01T13:18:47;4.70;;;0.60;;
17917;SDS011;9084;50.956;3.106;2023-04-01T13:21:28;0.40;;;0.30;;
17917;SDS011;9084;50.956;3.106;2023-04-01T13:29:18;1.13;;;0.50;;
17917;SDS011;9084;50.956;3.106;2023-04-01T13:32:24;2.17;;;0.82;;
17917;SDS011;9084;50.956;3.106;2023-04-01T13:40:26;3.17;;;0.70;;
17917;SDS011;9084;50.956;3.106;2023-04-01T13:43:25;2.08;;;0.60;;
17917;SDS011;9084;50.956;3.106;2023-04-01T14:05:43;2.47;;;0.90;;
17917;SDS011;9084;50.956;3.106;2023-04-01T14:13:43;3.10;;;0.70;;
17917;SDS011;9084;50.956;3.106;2023-04-01T14:16:47;0.65;;;0.40;;
17917;SDS011;9084;50.956;3.106;2023-04-01T14:31:04;1.95;;;0.95;;
17917;SDS011;9084;50.956;3.106;2023-04-01T14:36:50;1.27;;;0.80;;
17917;SDS011;9084;50.956;3.106;2023-04-01T14:48:07;1.58;;;0.90;;
17917;SDS011;9084;50.956;3.106;2023-04-01T14:50:51;1.08;;;0.60;;
17917;SDS011;9084;50.956;3.106;2023-04-01T14:56:00;1.33;;;0.85;;
17917;SDS011;9084;50.956;3.106;2023-04-01T14:58:44;3.13;;;0.90;;
17917;SDS011;9084;50.956;3.106;2023-04-01T15:01:21;3.58;;;0.88;;
17917;SDS011;9084;50.956;3.106;2023-04-01T15:17:48;1.95;;;1.17;;
17917;SDS011;9084;50.956;3.106;2023-04-01T15:23:06;2.47;;;1.35;;
17917;SDS011;9084;50.956;3.106;2023-04-01T15:33:55;2.72;;;1.30;;
17917;SDS011;9084;50.956;3.106;2023-04-01T15:44:44;3.55;;;1.00;;
17917;SDS011;9084;50.956;3.106;2023-04-01T15:47:27;3.92;;;1.50;;
17917;SDS011;9084;50.956;3.106;2023-04-01T15:55:37;5.80;;;1.65;;
17917;SDS011;9084;50.956;3.106;2023-04-01T16:19:43;2.80;;;1.23;;
17917;SDS011;9084;50.956;3.106;2023-04-01T16:27:58;4.40;;;1.08;;
17917;SDS011;9084;50.956;3.106;2023-04-01T16:33:11;2.95;;;1.20;;
17917;SDS011;9084;50.956;3.106;2023-04-01T16:41:16;5.15;;;1.95;;
17917;SDS011;9084;50.956;3.106;2023-04-01T16:43:57;3.47;;;1.05;;
17917;SDS011;9084;50.956;3.106;2023-04-01T16:49:40;2.30;;;1.58;;
17917;SDS011;9084;50.956;3.106;2023-04-01T17:02:33;5.50;;;1.80;;
17917;SDS011;9084;50.956;3.106;2023-04-01T17:05:04;2.88;;;1.38;;
17917;SDS011;9084;50.956;3.106;2023-04-01T17:13:17;3.13;;;1.60;;
17917;SDS011;9084;50.956;3.106;2023-04-01T17:47:28;5.25;;;2.70;;
17917;SDS011;9084;50.956;3.106;2023-04-01T17:52:38;6.18;;;3.42;;
17917;SDS011;9084;50.956;3.106;2023-04-01T17:58:16;3.53;;;2.75;;
17917;SDS011;9084;50.956;3.106;2023-04-01T18:06:03;2.58;;;2.05;;
17917;SDS011;9084;50.956;3.106;2023-04-01T18:08:46;5.32;;;2.75;;
17917;SDS011;9084;50.956;3.106;2023-04-01T18:22:41;5.35;;;3.38;;
17917;SDS011;9084;50.956;3.106;2023-04-01T18:25:19;4.28;;;3.55;;
17917;SDS011;9084;50.956;3.106;2023-04-01T18:28:14;4.95;;;3.40;;
17917;SDS011;9084;50.956;3.106;2023-04-01T18:30:43;6.03;;;3.70;;
17917;SDS011;9084;50.956;3.106;2023-04-01T18:33:30;5.47;;;3.60;;
17917;SDS011;9084;50.956;3.106;2023-04-01T18:36:15;5.22;;;3.42;;
17917;SDS011;9084;50.956;3.106;2023-04-01T18:39:02;6.50;;;3.13;;
17917;SDS011;9084;50.956;3.106;2023-04-01T18:49:26;6.07;;;3.47;;
17917;SDS011;9084;50.956;3.106;2023-04-01T18:52:02;5.40;;;3.10;;
17917;SDS011;9084;50.956;3.106;2023-04-01T18:54:47;4.50;;;2.63;;
17917;SDS011;9084;50.956;3.106;2023-04-01T18:57:20;3.72;;;2.92;;
17917;SDS011;9084;50.956;3.106;2023-04-01T18:59:50;3.70;;;2.13;;
17917;SDS011;9084;50.956;3.106;2023-04-01T19:13:20;4.53;;;1.92;;
17917;SDS011;9084;50.956;3.106;2023-04-01T19:21:29;2.60;;;2.40;;
17917;SDS011;9084;50.956;3.106;2023-04-01T19:26:48;4.97;;;3.17;;
17917;SDS011;9084;50.956;3.106;2023-04-01T19:30:30;7.63;;;4.90;;
17917;SDS011;9084;50.956;3.106;2023-04-01T19:40:54;10.60;;;6.53;;
17917;SDS011;9084;50.956;3.106;2023-04-01T19:46:36;12.52;;;5.85;;
17917;SDS011;9084;50.956;3.106;2023-04-01T19:51:42;7.82;;;5.68;;
17917;SDS011;9084;50.956;3.106;2023-04-01T19:56:56;6.67;;;5.27;;
17917;SDS011;9084;50.956;3.106;2023-04-01T20:04:43;7.97;;;5.13;;
17917;SDS011;9084;50.956;3.106;2023-04-01T20:07:23;9.20;;;5.63;;
17917;SDS011;9084;50.956;3.106;2023-04-01T20:10:03;8.63;;;4.70;;
17917;SDS011;9084;50.956;3.106;2023-04-01T20:15:18;6.25;;;4.75;;
17917;SDS011;9084;50.956;3.106;2023-04-01T20:17:56;8.10;;;5.27;;
17917;SDS011;9084;50.956;3.106;2023-04-01T20:20:24;10.95;;;6.40;;
17917;SDS011;9084;50.956;3.106;2023-04-01T20:55:49;21.48;;;10.65;;
17917;SDS011;9084;50.956;3.106;2023-04-01T20:58:32;18.27;;;10.13;;
17917;SDS011;9084;50.956;3.106;2023-04-01T21:21:13;18.20;;;9.53;;
17917;SDS011;9084;50.956;3.106;2023-04-01T21:29:47;18.63;;;10.60;;
17917;SDS011;9084;50.956;3.106;2023-04-01T21:38:17;17.63;;;11.50;;
17917;SDS011;9084;50.956;3.106;2023-04-01T22:04:07;14.07;;;10.53;;
17917;SDS011;9084;50.956;3.106;2023-04-01T22:12:20;14.33;;;9.63;;
17917;SDS011;9084;50.956;3.106;2023-04-01T22:17:46;14.77;;;9.10;;
17917;SDS011;9084;50.956;3.106;2023-04-01T22:31:49;16.83;;;10.43;;
17917;SDS011;9084;50.956;3.106;2023-04-01T22:34:33;16.07;;;12.03;;
17917;SDS011;9084;50.956;3.106;2023-04-01T22:40:00;19.07;;;12.60;;
17917;SDS011;9084;50.956;3.106;2023-04-01T22:50:25;16.73;;;10.60;;
17917;SDS011;9084;50.956;3.106;2023-04-01T22:53:15;20.63;;;10.85;;
17917;SDS011;9084;50.956;3.106;2023-04-01T22:56:03;19.00;;;10.10;;
17917;SDS011;9084;50.956;3.106;2023-04-01T22:58:42;16.73;;;10.30;;
17917;SDS011;9084;50.956;3.106;2023-04-01T23:01:17;12.77;;;9.80;;
17917;SDS011;9084;50.956;3.106;2023-04-01T23:03:49;14.60;;;9.70;;
17917;SDS011;9084;50.956;3.106;2023-04-01T23:06:29;13.10;;;8.87;;
17917;SDS011;9084;50.956;3.106;2023-04-01T23:25:01;21.23;;;11.65;;
17917;SDS011;9084;50.956;3.106;2023-04-01T23:27:52;17.27;;;11.83;;
17917;SDS011;9084;50.956;3.106;2023-04-01T23:38:24;12.23;;;7.83;;
17917;SDS011;9084;50.956;3.106;2023-04-01T23:40:52;13.17;;;7.83;;
17917;SDS011;9084;50.956;3.106;2023-04-01T23:45:52;13.87;;;7.23;;
17917;SDS011;9084;50.956;3.106;2023-04-01T23:48:19;13.67;;;7.73;;
17917;SDS011;9084;50.956;3.106;2023-04-01T23:50:56;14.33;;;8.27;;
17917;SDS011;9084;50.956;3.106;2023-04-01T23:53:26;15.70;;;7.90;;
17917;SDS011;9084;50.956;3.106;2023-04-01T23:55:55;10.80;;;6.53;;
17917;SDS011;9084;50.956;3.106;2023-04-01T23:58:25;14.73;;;6.60;;
